Weather observations for the past three days for
Tangier Island Airport
Metric (Imperial)
Date Time (edt) Wind (kph) Vis. (km) Weather Sky Cond. Temperature (ºC) Relative Humidity Wind Chill (°C) Heat Index (°C) Pressure Precipitation (cm)
Air Dwpt 6 hour altimeter (cm) sea level (mb) 1 hr 3 hr 6 hr
Max. Min.
04 01:35 S 24 G 39 0.00 Fair CLR 13.3 8.2 71% 76.3 0.0
04 00:55 S 30 G 39 0.00 Fair CLR 13 8.1 72% 76.3 0.0
04 00:35 S 31 G 37 0.00 Fair CLR 13 7.7 70% 76.3 0.0
04 00:15 S 20 G 28 0.00 Fair CLR 13 6.8 66% 76.3 0.0
03 23:55 S 19 G 28 0.00 Fair CLR 13.1 5.3 59% 76.3 0.0
03 23:35 S 19 0.00 Fair CLR 13.1 3.8 54% 76.28 0.0
03 23:15 S 15 0.00 Fair CLR 13.2 4.3 55% 76.28 0.0
03 22:35 S 15 0.00 Fair CLR 13.1 4.3 55% 76.28 0.0
03 22:15 S 13 0.00 Fair CLR 12.8 3.3 53% 76.28 0.0
03 21:55 S 9 0.00 Fair CLR 11.9 3.5 57% 76.25 0.0
03 21:35 Calm 0.00 Fair CLR 12.9 3.1 52% 76.25 0.0
03 21:15 W 6 0.00 Fair CLR 13.9 2.8 47% 76.25 0.0
03 20:55 NW 7 0.00 Fair CLR 14.3 2.3 45% 76.23 0.0
03 20:35 NW 9 0.00 Fair CLR 14.5 1.7 42% 76.2 0.0
03 20:15 NW 13 0.00 Fair CLR 14.5 1.9 43% 76.2 0.0
03 19:55 NW 9 0.00 Fair CLR 14.9 1.9 27.4 0.2 42% 76.17 0.0
03 19:35 NW 13 0.00 Fair CLR 15.2 2 41% 76.17 0.0
03 19:15 NW 19 0.00 Fair CLR 15.5 1.5 39% 76.17 0.0
03 18:55 NW 15 0.00 Fair CLR 15.7 1.4 38% 76.17 0.0
03 18:35 NW 24 0.00 Fair CLR 15.9 1.1 37% 76.17 0.0
03 18:15 NW 22 0.00 Fair CLR 16 1.1 37% 76.17 0.0
03 17:55 NW 28 0.00 Fair CLR 16 1.2 37% 76.17 0.0
03 17:35 NW 24 0.00 Fair CLR 16.1 1.3 37% 76.17 0.0
03 17:15 NW 24 0.00 Fair CLR 16 1.3 37% 76.17 0.0
03 16:55 NW 24 G 31 0.00 Fair CLR 15.9 1 37% 76.17 0.0
03 16:35 NW 30 G 39 0.00 Fair CLR 15.7 0.8 37% 76.17 0.0
03 16:15 NW 33 G 41 0.00 Fair and Breezy CLR 15.7 1.9 40% 76.17 0.0
03 15:55 NW 33 G 43 0.00 Fair and Breezy CLR 15.4 1.4 39% 76.2 0.0
03 15:35 NW 35 G 43 0.00 Fair and Breezy CLR 15.2 1.4 39% 76.2 0.0
03 15:15 NW 31 G 46 0.00 Fair CLR 14.9 1.3 40% 76.25 0.0
03 14:55 W 33 G 41 0.00 Fair and Breezy CLR 14.6 1 40% 76.25 0.0
03 14:35 NW 35 0.00 Fair and Breezy CLR 14.4 1.4 42% 76.25 0.0
03 14:15 W 31 G 41 0.00 Fair CLR 14.1 1.1 41% 76.28 0.0
03 13:55 W 33 G 43 0.00 Fair and Breezy CLR 13.9 0.7 27.4 0.2 41% 76.3 0.0
03 13:35 W 30 G 37 0.00 Fair CLR 13.5 0.4 41% 76.3 0.0
03 13:15 W 30 G 43 0.00 Fair CLR 13.2 0.4 42% 76.3 0.0
03 12:55 W 30 G 44 0.00 Partly Cloudy SCT050 13.1 0.6 43% 76.3 0.0
03 12:35 W 28 G 43 0.00 Partly Cloudy SCT050 12.8 0.4 43% 76.3 0.0
03 12:15 NW 22 G 37 0.00 Partly Cloudy SCT050 12.5 0 43% 76.33 0.0
03 11:55 NW 24 0.00 Mostly Cloudy BKN050 12.4 -0.2 42% 76.33 0.0
03 11:35 NW 31 G 41 0.00 Mostly Cloudy BKN050 12.2 0.3 44% 76.33 0.0
03 10:55 NW 30 G 41 0.00 Fair CLR 12 -0.8 41% 76.3 0.0
03 10:15 NW 43 G 48 0.00 Fair and Windy CLR 11.6 -0.3 44% 76.3 0.0
03 09:55 NW 37 G 46 0.00 Fair and Breezy CLR 11.3 -0.1 46% 76.28 0.0
03 09:35 NW 35 G 46 0.00 Fair and Breezy CLR 11.1 0.5 48% 76.28 0.0
03 09:15 NW 33 G 48 0.00 Fair and Breezy CLR 10.8 1.6 53% 76.28 0.0
03 08:35 NW 37 G 50 0.00 Fair and Breezy CLR 10.4 1.5 54% 76.25 0.0
03 08:15 NW 37 G 48 0.00 Fair and Breezy CLR 10.2 1.6 55% 76.23 0.0
03 07:15 NW 41 G 50 0.00 Fair and Breezy CLR 10 2.5 60% 6 76.17 0.0
03 06:55 NW 37 G 46 0.00 Fair and Breezy CLR 10 2.3 59% 6 76.15 0.0
03 06:35 NW 37 G 48 0.00 Fair and Breezy CLR 10 2.9 62% 6 76.12 0.0
03 06:15 NW 43 0.00 Fair and Windy CLR 10.2 3 61% 76.1 0.0
03 05:55 NW 43 G 54 0.00 Fair and Windy CLR 10.5 2.5 58% 76.07 0.0
03 05:35 NW 33 0.00 Partly Cloudy and Breezy SCT080 10.8 2 55% 76.05 0.0
03 05:15 NW 37 G 50 0.00 Mostly Cloudy and Breezy BKN090 11.2 1.6 52% 76.05 0.0
03 03:35 NW 35 0.00 Overcast and Breezy OVC100 12.4 1.9 49% 75.97 0.0
03 02:15 N 33 G 44 0.00 Overcast and Breezy OVC110 13.4 4.3 54% 75.92 0.0
03 01:35 N 22 0.00 Overcast OVC100 13.5 2.8 49% 75.92 0.0
03 01:15 N 26 0.00 Mostly Cloudy BKN100 13.5 3 49% 75.92 0.0
03 00:55 N 26 G 35 0.00 Partly Cloudy SCT100 13.5 3.3 50% 75.92 0.0
03 00:35 N 28 0.00 Fair CLR 13.6 3.2 50% 75.92 0.0
03 00:15 N 26 0.00 Fair CLR 14 3.6 50% 75.92 0.0
02 23:55 N 28 G 37 0.00 Fair CLR 14.3 3.8 50% 75.92 0.0
02 23:35 NW 28 G 35 0.00 Fair CLR 14.5 3.4 48% 75.92 0.0
02 23:15 N 24 0.00 Fair CLR 14.5 2.9 46% 75.92 0.0
02 22:55 NW 26 G 31 0.00 Fair CLR 14.5 3.1 47% 75.92 0.0
02 22:15 N 19 0.00 Fair CLR 14.3 2.8 46% 75.92 0.0
02 21:55 N 19 0.00 Fair CLR 14.3 2.6 46% 75.92 0.0
02 21:35 N 19 0.00 Fair CLR 14.2 2.4 45% 75.92 0.0
02 21:15 N 17 0.00 Partly Cloudy SCT120 14.3 1.6 42% 75.92 0.0
02 20:55 NW 19 0.00 Partly Cloudy SCT120 14.2 1.5 42% 75.9 0.0
02 20:35 NW 17 0.00 Partly Cloudy SCT120 14.2 1.5 42% 75.9 0.0
02 20:15 NW 19 0.00 Fair CLR 14.2 1 41% 75.87 0.0
02 19:55 N 19 0.00 Fair CLR 14.2 2 27.4 0.2 44% 75.87 0.0
02 19:35 N 19 0.00 Fair CLR 14.3 1.6 42% 75.84 0.0
02 19:15 NW 19 0.00 Partly Cloudy SCT085 14.3 1.8 43% 75.87 0.0
02 18:55 N 22 G 28 0.00 Mostly Cloudy BKN085 14.4 2.3 44% 75.87 0.0
02 18:35 N 20 0.00 Partly Cloudy SCT075 14.3 2.4 45% 75.87 0.0
02 18:15 N 22 0.00 Mostly Cloudy BKN075 14.5 1.8 42% 75.84 0.0
02 17:55 N 22 G 28 0.00 Mostly Cloudy BKN075 14.5 1.8 42% 75.87 0.0
02 17:35 N 19 0.00 Mostly Cloudy BKN075 14.5 2.3 44% 75.87 0.0
02 16:55 N 17 0.00 Partly Cloudy SCT075 14.2 4 51% 75.84 0.0
02 16:35 NW 20 0.00 Partly Cloudy SCT075 14.1 4.7 53% 75.87 0.0
02 16:15 NW 24 0.00 Fair CLR 14 5.2 56% 75.87 0.0
02 15:55 NW 26 G 35 0.00 Partly Cloudy SCT070 13.9 5.6 58% 75.87 0.0
02 15:15 NW 30 0.00 Partly Cloudy SCT120 14.6 6.6 59% 75.87 0.0
02 13:55 NW 22 0.00 Partly Cloudy SCT070 SCT110 13.9 6.9 27.4 0.2 63% 76 0.0
02 13:35 NW 24 G 33 0.00 Mostly Cloudy BKN070 13.8 6.8 63% 76 0.0
02 13:15 NW 24 0.00 Mostly Cloudy BKN070 BKN120 13.5 6.8 64% 76 0.0
02 12:35 NW 20 0.00 Overcast OVC070 13.7 6 60% 76.02 0.0
02 10:15 N 22 0.00 Mostly Cloudy BKN060 BKN100 14.1 6.1 59% 76 0.0
02 09:55 N 22 G 31 0.00 Partly Cloudy SCT100 SCT120 14 5.6 57% 76 0.0
02 09:35 N 22 0.00 Partly Cloudy SCT100 SCT120 13.7 5.5 58% 76 0.0
02 09:15 N 28 0.00 Partly Cloudy SCT100 13.8 6.1 60% 76 0.0
02 07:55 N 26 G 31 0.00 Fair CLR 14.1 8.6 27.4 0.2 70% 76 0.0
02 07:35 N 24 G 35 0.00 Fair CLR 14.1 9.1 72% 76 0.0
02 07:15 N 28 G 33 0.00 Fair CLR 14.1 9.3 73% 75.97 0.0
02 06:55 N 26 0.00 Fair CLR 14.2 9.1 72% 75.97 0.0
02 06:35 N 26 0.00 Fair CLR 14.2 9.2 72% 75.95 0.0
02 06:15 NW 20 G 30 0.00 Fair CLR 13.9 9.5 75% 75.95 0.0
02 05:35 W 17 0.00 Fair CLR 13.7 9.4 75% 75.92 0.0
02 03:55 W 17 0.00 Mostly Cloudy BKN037 14.2 10.1 77% 75.92 0.0
02 01:35 S 19 0.00 Fair CLR 14.2 10.2 77% 75.97 0.0
02 00:55 S 20 G 26 0.00 Fair CLR 13.6 10.1 80% 76 0.0
02 00:35 S 20 G 28 0.00 Fair CLR 13.4 9.3 76% 76 0.0
01 23:55 S 20 G 28 0.00 Fair CLR 13 8.2 73% 76 0.0
01 23:15 S 24 G 37 0.00 Fair CLR 13 7.9 71% 75.97 0.0
01 22:55 S 28 G 37 0.00 Fair CLR 13 7.3 69% 75.97 0.0
01 22:35 SE 26 G 35 0.00 Fair CLR 13 7.1 68% 76 0.0
01 22:15 SE 22 0.00 Fair CLR 13 6.6 65% 76 0.0
01 21:55 SE 22 0.00 Fair CLR 13 6.3 64% 76 0.0
01 21:35 SE 22 G 30 0.00 Fair CLR 13 7 67% 76 0.0
01 20:55 SE 22 0.00 Fair CLR 13.2 6.5 64% 75.97 0.0
01 20:35 SE 24 G 31 0.00 Fair CLR 13.3 7.2 67% 75.97 0.0
01 20:15 SE 22 G 31 0.00 Fair CLR 13.4 7.3 67% 75.97 0.0
01 19:55 SE 28 0.00 Fair CLR 13.9 7.6 27.4 0.2 66% 75.95 0.0
01 19:35 SE 20 G 31 0.00 Fair CLR 14.5 7.8 64% 75.95 0.0
01 19:15 SE 24 G 31 0.00 Fair CLR 15.3 8.2 63% 75.95 0.0
01 18:55 SE 20 G 28 0.00 Fair CLR 16.2 7.5 57% 75.95 0.0
01 18:35 SE 19 0.00 Fair CLR 16.7 3.9 43% 75.95 0.0
01 18:15 SE 15 0.00 Fair CLR 16.7 4.9 46% 75.95 0.0
01 17:55 S 17 0.00 Fair CLR 16.8 5.5 47% 75.97 0.0
01 17:35 S 17 0.00 Fair CLR 16.8 5 46% 75.97 0.0
01 16:55 S 15 0.00 Fair CLR 16.8 2.3 38% 75.97 0.0
01 16:35 S 15 0.00 Fair CLR 16.9 1.8 36% 76 0.0
01 15:55 S 13 0.00 Fair CLR 17 2.7 39% 76.05 0.0
01 15:35 SW 13 0.00 Fair CLR 16.3 2.6 40% 76.05 0.0
01 14:55 SW 15 0.00 Fair CLR 15.7 1.5 38% 76.1 0.0
01 12:35 NW 7 0.00 Fair CLR 14.6 4 49% 76.17 0.0
01 10:35 NW 13 0.00 Fair CLR 14.3 4.1 51% 76.23 0.0
01 10:15 N 11 0.00 Fair CLR 14.3 4.1 51% 76.23 0.0
01 08:55 N 15 0.00 Fair CLR 13.3 4.8 57% 76.2 0.0
01 08:35 N 19 0.00 Fair CLR 13.1 4.6 57% 76.2 0.0
01 07:15 N 19 0.00 Fair CLR 12.2 4.5 60% 76.17 0.0
01 06:55 N 24 G 33 0.00 Fair CLR 12 4.6 61% 76.15 0.0
01 06:35 N 28 0.00 Fair CLR 11.8 4.7 62% 76.12 0.0
01 06:15 N 24 G 33 0.00 Fair CLR 12 4.8 62% 76.12 0.0
01 05:55 N 30 0.00 Fair CLR 12 4.5 60% 76.12 0.0
01 05:35 N 30 0.00 Fair CLR 12.1 4.3 59% 76.1 0.0
01 05:15 N 30 0.00 Fair CLR 12.2 4.1 58% 76.12 0.0
01 04:55 N 33 0.00 Fair and Breezy CLR 12.3 4.3 58% 76.1 0.0
01 03:55 NW 28 G 37 0.00 Fair CLR 12.8 4.7 58% 76.07 0.0
01 03:15 NW 30 G 39 0.00 Fair CLR 13.1 5.2 59% 76.05 0.0
01 02:55 N 30 G 39 0.00 Fair CLR 13.1 5.3 59% 76.02 0.0
Date Time (edt) Wind (kph) Vis. (km) Weather Sky Cond. Air Dwpt Max. Min. Relative Humidity Wind Chill (°C) Heat Index (°C) altimeter (cm) sea level (mb) 1 hr 3 hr 6 hr
6 hour
Temperature (ºC) Pressure Precipitation (cm)